Flight Track Log - Related Links

Times and Time Zones

All times are in EDT time to prevent confusion due to time zone crossing. See the UAL4530 flight status page for this flight to view local times or setup timezone preferences in your user account.

Time Position Orientation Groundspeed Altitude Reporting Facility
EDT Latitude Longitude Course Direction KTS MPH feet Rate Location/Type
Thu 01:32:43 PM 40.7333 -74.1333 276° West 194 223 1,600  Level New York TRACON
Thu 01:33:43 PM 40.7833 -74.0833 37° Northeast 250 288 3,800 2,737 Climbing New York TRACON
Thu 01:34:37 PM 40.8000 -74.1500 288° West 244 281 6,800 2,900 Climbing New York TRACON
Thu 01:35:00 PM 40.7440 -74.6337 277° West  Level FlightAware Approximate
Thu 01:35:43 PM 40.7833 -74.2500 258° West 254 292 9,600  Level New York TRACON
Thu 01:36:00 PM 40.7543 -74.7552 276° West  Level FlightAware Approximate
Thu 01:36:43 PM 40.7500 -74.3500 246° West 290 334 11,000  Level New York TRACON
Thu 01:37:00 PM 40.7636 -74.8769 276° West  Level FlightAware Approximate
Thu 01:37:37 PM 40.7500 -74.4500 270° West 320 368 11,900  Level New York TRACON
Thu 01:38:43 PM 40.7500 -74.5833 270° West 332 382 12,600 1,050 Climbing New York TRACON
Thu 01:39:37 PM 40.7667 -74.6833 282° West 326 375 14,000 1,543 Climbing New York TRACON
Thu 01:39:53 PM 40.7683 -74.7247 273° West 331 381 14,400 1,703 Climbing New York Center
Thu 01:40:51 PM 40.7797 -74.8214 279° West 340 391 16,100 1,678 Climbing New York Center
Thu 01:41:51 PM 40.7897 -74.9508 276° West 350 403 17,700 1,350 Climbing New York Center
Thu 01:42:51 PM 40.8000 -75.0694 277° West 340 391 18,800 1,140 Climbing New York Center
Thu 01:43:52 PM 40.7981 -75.1761 269° West 332 382 20,000 1,289 Climbing New York Center
Thu 01:44:52 PM 40.7769 -75.2953 257° West 327 376 21,400 1,400 Climbing New York Center
Thu 01:45:52 PM 40.7536 -75.4117 255° West 332 382 22,800 1,350 Climbing New York Center
Thu 01:46:52 PM 40.7183 -75.5186 247° West 327 376 24,100 1,388 Climbing New York Center
Thu 01:47:53 PM 40.6764 -75.6253 243° Southwest 327 376 25,600 1,488 Climbing New York Center
Thu 01:48:53 PM 40.6389 -75.7267 244° Southwest 327 376 27,100 1,576 Climbing New York Center
Thu 01:49:51 PM 40.6011 -75.8306 244° Southwest 321 369 28,700 1,627 Climbing New York Center
Thu 01:50:51 PM 40.5594 -75.9286 241° Southwest 314 361 30,300 1,587 Climbing New York Center
Thu 01:51:52 PM 40.5194 -76.0319 243° Southwest 303 349 31,900 1,550 Climbing New York Center
Thu 01:52:51 PM 40.4842 -76.1219 243° Southwest 297 342 33,400 1,311 Climbing New York Center
Thu 01:53:51 PM 40.4508 -76.2094 243° Southwest 285 328 34,500 800 Climbing New York Center
Thu 01:54:51 PM 40.4197 -76.2969 245° Southwest 278 320 35,000 545 Climbing New York Center
Thu 01:55:52 PM 40.3822 -76.3867 241° Southwest 278 320 35,600 496 Climbing New York Center
Thu 01:56:52 PM 40.3728 -76.4922 263° West 278 320 36,000 198 Climbing New York Center
Thu 01:57:53 PM 40.3672 -76.6089 266° West 292 336 36,000  Level New York Center
Thu 01:58:51 PM 40.3594 -76.7228 265° West 313 360 36,000  Level New York Center
Thu 01:59:51 PM 40.3533 -76.8419 266° West 324 373 36,000  Level New York Center
Thu 02:00:52 PM 40.3425 -76.9719 264° West 342 394 36,000  Level New York Center
Thu 02:01:52 PM 40.3356 -77.1047 266° West 356 410 36,000  Level New York Center
Thu 02:02:53 PM 40.3242 -77.2372 264° West 367 422 36,000  Level New York Center
Thu 02:04:26 PM 40.3097 -77.4519 265° West 372 428 36,000  Level Cleveland Center
Thu 02:05:26 PM 40.3008 -77.5883 265° West 372 428 36,000  Level Cleveland Center
Thu 02:06:26 PM 40.2917 -77.7194 265° West 372 428 36,000  Level Cleveland Center
Thu 02:07:26 PM 40.2842 -77.8369 265° West 364 419 36,000  Level Cleveland Center
Thu 02:08:26 PM 40.2689 -77.9872 262° West 378 435 36,000  Level Cleveland Center
Thu 02:09:26 PM 40.2594 -78.1208 265° West 378 435 36,000  Level Cleveland Center
Thu 02:10:26 PM 40.2497 -78.2517 264° West 378 435 36,000  Level Cleveland Center
Thu 02:11:26 PM 40.2378 -78.3828 263° West 372 428 36,000  Level Cleveland Center
Thu 02:12:26 PM 40.2278 -78.5164 264° West 372 428 36,000  Level Cleveland Center
Thu 02:13:26 PM 40.2175 -78.6472 264° West 372 428 36,000  Level Cleveland Center
Thu 02:14:26 PM 40.2050 -78.7781 263° West 372 428 36,000  Level Cleveland Center
Thu 02:15:26 PM 40.1967 -78.9086 265° West 372 428 36,000  Level Cleveland Center
Thu 02:16:26 PM 40.1839 -79.0422 263° West 372 428 36,000  Level Cleveland Center
Thu 02:17:26 PM 40.1711 -79.1731 263° West 372 428 36,000  Level Cleveland Center
Thu 02:18:26 PM 40.1600 -79.3036 264° West 372 428 36,000  Level Cleveland Center
Thu 02:19:26 PM 40.1531 -79.4178 265° West 365 420 36,000  Level Cleveland Center
Thu 02:20:26 PM 40.1417 -79.5483 264° West 365 420 36,000  Level Cleveland Center
Thu 02:21:26 PM 40.1303 -79.6817 264° West 370 426 36,000  Level Cleveland Center
Thu 02:22:26 PM 40.1186 -79.8094 263° West 370 426 36,000  Level Cleveland Center
Thu 02:23:26 PM 40.1069 -79.9397 263° West 370 426 36,000  Level Cleveland Center
Thu 02:24:26 PM 40.0931 -80.0811 263° West 370 426 36,000  Level Cleveland Center
Thu 02:25:26 PM 40.0936 -80.2139 270° West 365 420 36,000  Level Cleveland Center
Thu 02:26:26 PM 40.0981 -80.3417 273° West 360 414 36,000  Level Cleveland Center
Thu 02:27:26 PM 40.0983 -80.4719 270° West 360 414 36,000  Level Cleveland Center
Thu 02:28:26 PM 40.1006 -80.6019 271° West 365 420 36,000  Level Cleveland Center
Thu 02:30:23 PM 40.0986 -80.8567 270° West 365 420 36,000  Level Indianapolis Center
Thu 02:31:25 PM 40.0994 -80.9914 271° West 366 421 36,000  Level Indianapolis Center
Thu 02:32:27 PM 40.1003 -81.1250 271° West 366 421 36,000  Level Indianapolis Center
Thu 02:33:29 PM 40.1017 -81.2617 271° West 372 428 36,000  Level Indianapolis Center
Thu 02:34:31 PM 40.1019 -81.3967 270° West 370 426 36,000  Level Indianapolis Center
Thu 02:35:33 PM 40.1017 -81.5342 270° West 373 429 36,000  Level Indianapolis Center
Thu 02:36:35 PM 40.1031 -81.6706 271° West 373 429 36,000  Level Indianapolis Center
Thu 02:37:37 PM 40.1042 -81.8228 271° West 375 432 36,000  Level Indianapolis Center
Thu 02:38:39 PM 40.1033 -81.9586 270° West 373 429 36,000  Level Indianapolis Center
Thu 02:39:41 PM 40.1028 -82.0919 270° West 366 421 36,000  Level Indianapolis Center
Thu 02:40:43 PM 40.1028 -82.2264 270° West 367 422 36,000  Level Indianapolis Center
Thu 02:41:45 PM 40.1022 -82.3575 270° West 362 417 36,000  Level Indianapolis Center
Thu 02:42:47 PM 40.1017 -82.5103 270° West 358 412 36,000  Level Indianapolis Center
Thu 02:43:48 PM 40.1011 -82.6417 270° West 359 413 36,000 -49 Level Indianapolis Center
Thu 02:44:50 PM 40.0994 -82.7717 269° West 357 411 35,900  Descending Indianapolis Center
Thu 02:45:52 PM 40.0986 -82.9028 270° West 357 411 36,000 48 Climbing Indianapolis Center
Thu 02:46:54 PM 40.0978 -83.0311 270° West 355 409 36,000  Level Indianapolis Center
Thu 02:47:56 PM 40.0961 -83.1608 269° West 355 409 36,000  Level Indianapolis Center
Thu 02:48:58 PM 40.0947 -83.2911 269° West 357 411 36,000  Level Indianapolis Center
Thu 02:50:00 PM 40.0925 -83.4419 269° West 357 411 36,000  Level Indianapolis Center
Thu 02:51:02 PM 40.0903 -83.5708 269° West 357 411 36,000  Level Indianapolis Center
Thu 02:52:04 PM 40.0881 -83.7003 269° West 356 410 36,000  Level Indianapolis Center
Thu 02:53:06 PM 40.0861 -83.8308 269° West 360 414 36,000  Level Indianapolis Center
Thu 02:54:08 PM 40.0842 -83.9619 269° West 359 413 36,000 -48 Level Indianapolis Center
Thu 02:55:10 PM 40.0817 -84.1147 269° West 358 412 35,900  Descending Indianapolis Center
Thu 02:56:12 PM 40.0794 -84.2475 269° West 363 418 36,000 48 Climbing Indianapolis Center
Thu 02:57:14 PM 40.0758 -84.3800 268° West 364 419 36,000  Level Indianapolis Center
Thu 02:58:16 PM 40.0731 -84.5122 268° West 362 417 36,000  Level Indianapolis Center
Thu 02:59:18 PM 40.0694 -84.6439 268° West 362 417 36,000  Level Indianapolis Center
Thu 03:00:20 PM 40.0653 -84.7764 268° West 361 415 36,000  Level Indianapolis Center
Thu 03:01:22 PM 40.0628 -84.9100 269° West 364 419 36,000  Level Indianapolis Center
Thu 03:02:24 PM 40.0586 -85.0644 268° West 364 419 36,000  Level Indianapolis Center
Thu 03:03:25 PM 40.0544 -85.1975 268° West 364 419 36,000  Level Indianapolis Center
Thu 03:04:28 PM 40.0514 -85.3306 268° West 366 421 36,000  Level Indianapolis Center
Thu 03:05:30 PM 40.0469 -85.4639 268° West 368 423 36,000  Level Indianapolis Center
Thu 03:06:32 PM 40.0425 -85.5975 268° West 367 422 36,000  Level Indianapolis Center
Thu 03:07:34 PM 40.0383 -85.7300 268° West 364 419 36,000  Level Indianapolis Center
Thu 03:08:36 PM 40.0333 -85.8858 268° West 366 421 36,000  Level Indianapolis Center
Thu 03:09:38 PM 40.0281 -86.0183 267° West 366 421 36,000  Level Indianapolis Center
Thu 03:10:40 PM 40.0233 -86.1497 267° West 365 420 36,000  Level Indianapolis Center
Thu 03:11:20 PM 40.0206 -86.2358 268° West 362 417 36,000  Level Chicago Center
Thu 03:12:23 PM 40.0158 -86.3656 267° West 361 415 36,000  Level Chicago Center
Thu 03:12:44 PM 40.0142 -86.4092 267° West 360 414 36,000  Level Indianapolis Center
Thu 03:13:46 PM 40.0078 -86.5600 267° West 358 412 36,000  Level Indianapolis Center
Thu 03:14:48 PM 40.0022 -86.6914 267° West 361 415 36,000  Level Indianapolis Center
Thu 03:16:31 PM 39.9936 -86.9078 267° West 360 414 36,000  Level Chicago Center
Thu 03:16:52 PM 39.9914 -86.9492 266° West 353 406 36,000  Level Indianapolis Center
Thu 03:17:54 PM 39.9853 -87.0783 267° West 355 409 36,000  Level Indianapolis Center
Thu 03:18:56 PM 39.9806 -87.2078 267° West 356 410 36,000  Level Indianapolis Center
Thu 03:19:58 PM 39.9725 -87.3583 266° West 356 410 36,000  Level Indianapolis Center
Thu 03:21:01 PM 39.9675 -87.4872 267° West 355 409 36,000  Level Indianapolis Center
Thu 03:22:02 PM 39.9606 -87.6172 266° West 358 412 36,000  Level Indianapolis Center
Thu 03:23:05 PM 39.9539 -87.7472 266° West 357 411 36,000  Level Indianapolis Center
Thu 03:24:07 PM 39.9464 -87.8761 266° West 356 410 36,000  Level Indianapolis Center
Thu 03:24:47 PM 39.9428 -87.9619 267° West 353 406 36,000  Level Chicago Center
Thu 03:25:49 PM 39.9364 -88.0919 266° West 357 411 36,000  Level Chicago Center
Thu 03:26:52 PM 39.9283 -88.2342 266° West 355 409 36,000  Level Chicago Center
Thu 03:27:54 PM 39.9228 -88.3619 267° West 353 406 36,000  Level Chicago Center
Thu 03:28:12 PM 39.9169 -88.4139 262° West 356 410 36,000  Level Kansas City Center
Thu 03:29:17 PM 39.9097 -88.5406 266° West 353 406 36,000  Level Kansas City Center
Thu 03:30:17 PM 39.9031 -88.6681 266° West 354 407 36,000  Level Kansas City Center
Thu 03:31:21 PM 39.8947 -88.7953 265° West 353 406 36,000  Level Kansas City Center
Thu 03:32:21 PM 39.8878 -88.9228 266° West 353 406 36,000  Level Kansas City Center
Thu 03:33:24 PM 39.8806 -89.0492 266° West 351 404 36,000  Level Kansas City Center
Thu 03:34:25 PM 39.8719 -89.1753 265° West 350 403 36,000  Level Kansas City Center
Thu 03:35:29 PM 39.8631 -89.3258 266° West 348 400 36,000  Level Kansas City Center
Thu 03:36:30 PM 39.8542 -89.4514 265° West 348 400 36,000  Level Kansas City Center
Thu 03:37:33 PM 39.8461 -89.5769 265° West 348 400 36,000  Level Kansas City Center
Thu 03:38:33 PM 39.8383 -89.7039 265° West 350 403 36,000  Level Kansas City Center
Thu 03:39:35 PM 39.8408 -89.8286 272° West 347 399 36,000  Level Kansas City Center
Thu 03:40:39 PM 39.8419 -89.9500 271° West 339 390 36,000  Level Kansas City Center
Thu 03:41:40 PM 39.8433 -90.0703 271° West 335 386 36,000  Level Kansas City Center
Thu 03:42:43 PM 39.8444 -90.2150 271° West 335 386 36,000  Level Kansas City Center
Thu 03:43:44 PM 39.8450 -90.3375 270° West 334 384 36,000  Level Kansas City Center
Thu 03:44:45 PM 39.8472 -90.4592 271° West 335 386 36,000  Level Kansas City Center
Thu 03:45:48 PM 39.8475 -90.5822 270° West 338 389 36,000  Level Kansas City Center
Thu 03:46:50 PM 39.8469 -90.7025 270° West 335 386 36,000  Level Kansas City Center
Thu 03:47:53 PM 39.8475 -90.8253 270° West 337 388 36,000  Level Kansas City Center
Thu 03:48:54 PM 39.8481 -90.9478 270° West 337 388 36,000  Level Kansas City Center
Thu 03:49:57 PM 39.8489 -91.0803 271° West 337 388 36,000  Level Kansas City Center
Thu 03:50:57 PM 39.8486 -91.2011 270° West 337 388 36,000  Level Kansas City Center
Thu 03:52:01 PM 39.8447 -91.3461 268° West 336 387 36,000  Level Kansas City Center
Thu 03:53:03 PM 39.8336 -91.4694 263° West 342 394 36,000  Level Kansas City Center
Thu 03:54:05 PM 39.8236 -91.5919 264° West 344 396 36,000  Level Kansas City Center
Thu 03:55:08 PM 39.8161 -91.7136 265° West 340 391 36,000  Level Kansas City Center
Thu 03:56:09 PM 39.8058 -91.8372 264° West 342 394 36,000  Level Kansas City Center
Thu 03:57:10 PM 39.7964 -91.9597 264° West 344 396 36,000  Level Kansas City Center
Thu 03:58:14 PM 39.7861 -92.1050 265° West 340 391 36,000  Level Kansas City Center
Thu 03:59:15 PM 39.7761 -92.2294 264° West 344 396 36,000 -624 Level Kansas City Center
Thu 04:00:19 PM 39.7661 -92.3525 264° West 344 396 34,700 -1,632 Descending Kansas City Center
Thu 04:01:20 PM 39.7556 -92.4758 264° West 344 396 32,600 -1,968 Descending Kansas City Center
Thu 04:02:24 PM 39.7453 -92.5986 264° West 344 396 30,600 -2,177 Descending Kansas City Center
Thu 04:03:24 PM 39.7317 -92.7553 264° West 353 406 28,100 -2,231 Descending Kansas City Center
Thu 04:04:25 PM 39.7197 -92.8914 264° West 364 419 26,100 -2,032 Descending Kansas City Center
Thu 04:06:30 PM 39.6944 -93.1736 263° West 391 450 21,800 -2,032 Descending Kansas City Center
Thu 04:07:34 PM 39.6825 -93.3056 263° West 375 432 19,700 -1,935 Descending Kansas City Center
Thu 04:08:34 PM 39.6722 -93.4344 264° West 365 420 17,800 -2,129 Descending Kansas City Center
Thu 04:09:38 PM 39.6578 -93.5833 263° West 353 406 15,300 -2,274 Descending Kansas City Center
Thu 04:10:38 PM 39.6450 -93.7067 262° West 348 400 13,100 -1,623 Descending Kansas City Center
Thu 04:11:40 PM 39.6333 -93.8431 264° West 343 395 12,000 -528 Descending Kansas City Center
Thu 04:12:43 PM 39.5928 -93.9525 244° Southwest 353 406 12,000 -484 Level Kansas City Center
Thu 04:13:44 PM 39.5314 -94.0711 236° Southwest 355 409 11,000 -960 Descending Kansas City Center
Thu 04:14:48 PM 39.5058 -94.1819 253° West 336 387 10,000 -528 Descending Kansas City Center
Thu 04:15:49 PM 39.4833 -94.2736 252° West 264 304 9,900 -1,065 Descending Kansas City Center
Thu 04:16:52 PM 39.4600 -94.3686 252° West 247 284 7,800 -1,935 Descending Kansas City Center
Thu 04:17:53 PM 39.4419 -94.4503 254° West 246 283 5,900 -1,918 Descending Kansas City Center
Thu 04:18:54 PM 39.4225 -94.5461 255° West 247 284 3,900 -1,967 Descending Kansas City Center

Login

Don't have an account? Register now (free) for customized features, flight alerts, and more!